SBI weather

Sambailo Airport
Koundara, Boké Region, Guinea

Public forecast

Using degrees Celsius for public forecast. Weather courtesy of forecast.io.

Closest aviation weather report (METAR) to Sambailo Airport

Closest report is Kédougou Airport, 66.7 nm (123.5 km) E. Retrieved 2019/10/20 03:00 UTC (2 hours ago):

GOTK 200300Z 28002KT CAVOK 25/24 Q1009

Closest aviation forecast (TAF) to Sambailo Airport

Closest forecast is Osvaldo Vieira International Airport, 140.7 nm (260.6 km) WSW. Retrieved 2019-10-20 00:00 UTC (5 hours ago):

TAF GGOV 192300Z 2000/2024 24005KT 9999 FEW014 TEMPO 2001/2004 TS SCT005 BKN014 FEW020CB